createdAt,value
2017-11-24T00:00:29.019Z,70.80
2017-11-24T00:03:02.812Z,70.90
2017-11-24T00:05:36.947Z,70.60
2017-11-24T00:08:11.244Z,70.70
2017-11-24T00:10:45.114Z,70.90
2017-11-24T00:13:18.817Z,71.40
2017-11-24T00:15:52.491Z,71.50
2017-11-24T00:18:27.088Z,72.70
2017-11-24T00:21:01.036Z,72.10
2017-11-24T00:23:35.553Z,72.70
2017-11-24T00:26:09.819Z,71.90
2017-11-24T00:28:43.717Z,72.10
2017-11-24T00:31:17.742Z,71.80
2017-11-24T00:33:51.539Z,72.30
2017-11-24T00:36:25.613Z,71.20
2017-11-24T00:39:00.270Z,71.30
2017-11-24T00:41:34.607Z,71.50
2017-11-24T00:44:08.562Z,71.20
2017-11-24T00:46:42.455Z,71.00
2017-11-24T00:49:16.562Z,71.50
2017-11-24T00:51:50.559Z,70.70
2017-11-24T00:54:24.507Z,71.20
2017-11-24T00:56:58.365Z,71.50
2017-11-24T00:59:32.146Z,74.20
2017-11-24T01:02:06.677Z,71.90
2017-11-24T01:04:41.085Z,74.50
2017-11-24T01:07:16.206Z,72.00
2017-11-24T01:09:50.341Z,71.40
2017-11-24T01:12:24.913Z,71.90
2017-11-24T01:14:58.774Z,71.80
2017-11-24T01:17:33.152Z,71.60
2017-11-24T01:20:07.612Z,72.90
2017-11-24T01:22:42.413Z,72.40
2017-11-24T01:25:17.352Z,72.40
2017-11-24T01:27:51.560Z,72.60
2017-11-24T01:30:26.814Z,73.50
2017-11-24T01:33:02.523Z,73.10
2017-11-24T01:35:36.443Z,74.00
2017-11-24T01:38:10.381Z,73.50
2017-11-24T01:40:44.235Z,73.80
2017-11-24T01:43:18.898Z,73.80
2017-11-24T01:45:53.246Z,74.20
2017-11-24T01:48:27.317Z,73.60
2017-11-24T01:51:01.253Z,73.40
2017-11-24T01:53:35.575Z,72.10
2017-11-24T01:56:09.532Z,72.00
2017-11-24T01:58:43.254Z,71.40
2017-11-24T02:01:17.765Z,71.50
2017-11-24T02:03:52.320Z,71.80
2017-11-24T02:06:26.499Z,71.30
2017-11-24T02:09:01.146Z,71.60
2017-11-24T02:11:35.325Z,71.40
2017-11-24T02:14:08.965Z,71.40
2017-11-24T02:16:42.814Z,71.60
2017-11-24T02:19:17.106Z,72.10
2017-11-24T02:21:51.037Z,72.00
2017-11-24T02:24:25.164Z,72.20
2017-11-24T02:26:59.515Z,72.20
2017-11-24T02:29:33.207Z,72.20
2017-11-24T02:32:06.847Z,72.10
2017-11-24T02:34:41.339Z,72.20
2017-11-24T02:37:15.295Z,72.00
2017-11-24T02:39:49.314Z,72.00
2017-11-24T02:42:22.927Z,72.00
2017-11-24T02:44:57.232Z,71.90
2017-11-24T02:47:32.356Z,71.60
2017-11-24T02:50:06.400Z,71.60
2017-11-24T02:52:40.281Z,72.20
2017-11-24T02:55:13.849Z,71.90
2017-11-24T02:57:48.495Z,71.80
2017-11-24T03:03:03.212Z,71.10
2017-11-24T03:05:37.177Z,71.20
2017-11-24T03:08:11.580Z,72.60
2017-11-24T03:10:45.258Z,72.30
2017-11-24T03:13:19.741Z,72.40
2017-11-24T03:15:54.468Z,72.50
2017-11-24T03:18:28.398Z,72.50
2017-11-24T03:21:02.284Z,71.40
2017-11-24T03:23:36.063Z,71.60
2017-11-24T03:26:10.383Z,71.60
2017-11-24T03:28:45.521Z,72.20
2017-11-24T03:31:19.650Z,72.20
2017-11-24T03:33:53.561Z,71.70
2017-11-24T03:36:27.374Z,71.60
2017-11-24T03:39:01.183Z,71.90
2017-11-24T03:41:35.066Z,72.30
2017-11-24T03:44:09.132Z,71.70
2017-11-24T03:46:42.874Z,71.50
2017-11-24T03:49:17.411Z,72.30
2017-11-24T03:51:51.285Z,71.60
2017-11-24T03:54:24.935Z,71.60
2017-11-24T03:56:59.404Z,72.20
2017-11-24T03:59:33.330Z,71.80
2017-11-24T04:02:08.651Z,72.30
2017-11-24T04:04:42.805Z,72.00
2017-11-24T04:07:16.542Z,72.30
2017-11-24T04:09:50.419Z,72.20
2017-11-24T04:12:25.055Z,72.20
2017-11-24T04:14:58.880Z,72.50
2017-11-24T04:17:32.630Z,72.80
2017-11-24T04:20:06.654Z,72.80
2017-11-24T04:22:41.152Z,73.90
2017-11-24T04:25:15.236Z,73.90
2017-11-24T04:27:49.941Z,74.80
2017-11-24T04:30:23.936Z,74.30
2017-11-24T04:32:57.721Z,74.50
2017-11-24T04:35:31.515Z,75.00
2017-11-24T04:38:05.400Z,75.00
2017-11-24T04:40:39.818Z,78.40
2017-11-24T04:43:14.196Z,75.20
2017-11-24T04:45:47.930Z,75.00
2017-11-24T04:48:22.721Z,76.40
2017-11-24T04:50:56.755Z,76.00
2017-11-24T04:53:30.541Z,75.90
2017-11-24T04:56:05.042Z,76.80
2017-11-24T04:58:39.055Z,76.80
2017-11-24T05:01:13.591Z,80.10
2017-11-24T05:03:47.764Z,80.40
2017-11-24T05:06:21.526Z,81.30
2017-11-24T05:08:55.223Z,81.30
2017-11-24T05:11:29.740Z,81.70
2017-11-24T05:14:03.956Z,80.80
2017-11-24T05:16:38.558Z,82.50
2017-11-24T05:19:12.830Z,82.60
2017-11-24T05:21:47.469Z,84.20
2017-11-24T05:24:22.374Z,84.10
2017-11-24T05:26:56.328Z,83.50
2017-11-24T05:29:30.985Z,84.50
2017-11-24T05:32:05.337Z,84.00
2017-11-24T05:34:39.153Z,84.50
2017-11-24T05:37:14.051Z,84.70
2017-11-24T05:39:48.422Z,85.30
2017-11-24T05:42:22.297Z,85.20
2017-11-24T05:44:56.754Z,84.90
2017-11-24T05:47:30.668Z,84.40
2017-11-24T05:50:04.458Z,85.00
2017-11-24T05:52:38.315Z,84.90
2017-11-24T05:55:12.098Z,84.30
2017-11-24T05:57:45.906Z,86.00
2017-11-24T06:00:19.613Z,85.20
2017-11-24T06:02:54.130Z,85.60
2017-11-24T06:05:28.153Z,85.60
2017-11-24T06:08:02.663Z,84.80
2017-11-24T06:10:36.906Z,85.10
2017-11-24T06:13:11.059Z,84.70
2017-11-24T06:15:45.439Z,84.70
2017-11-24T06:18:19.221Z,84.30
2017-11-24T06:20:53.540Z,84.50
2017-11-24T06:23:27.659Z,84.70
2017-11-24T06:26:02.387Z,85.60
2017-11-24T06:28:36.155Z,84.20
2017-11-24T06:31:11.007Z,86.60
2017-11-24T06:33:44.822Z,85.20
2017-11-24T06:36:19.445Z,86.10
2017-11-24T06:38:53.450Z,84.90
2017-11-24T06:41:27.369Z,83.90
2017-11-24T06:44:01.003Z,85.00
2017-11-24T06:46:35.578Z,85.40
2017-11-24T06:49:09.708Z,84.90
2017-11-24T06:51:43.521Z,84.90
2017-11-24T06:54:17.290Z,83.70
2017-11-24T06:56:52.046Z,83.20
2017-11-24T06:59:26.166Z,82.80
2017-11-24T07:02:00.672Z,83.20
2017-11-24T07:04:34.789Z,83.60
2017-11-24T07:07:08.409Z,84.70
2017-11-24T07:09:42.270Z,84.00
2017-11-24T07:12:16.033Z,83.50
2017-11-24T07:14:50.542Z,83.80
2017-11-24T07:17:24.499Z,84.20
2017-11-24T07:19:59.079Z,85.30
2017-11-24T07:22:33.065Z,85.20
2017-11-24T07:25:07.524Z,83.40
2017-11-24T07:27:41.712Z,83.80
2017-11-24T07:30:16.225Z,86.00
2017-11-24T07:32:51.311Z,86.60
2017-11-24T07:35:25.579Z,86.60
2017-11-24T07:37:59.484Z,87.80
2017-11-24T07:40:34.284Z,88.40
2017-11-24T07:43:08.855Z,87.70
2017-11-24T07:45:43.051Z,87.40
2017-11-24T07:48:17.155Z,86.80
2017-11-24T07:50:50.828Z,87.90
2017-11-24T07:53:24.707Z,88.30
2017-11-24T07:55:58.437Z,87.90
2017-11-24T07:58:32.296Z,88.20
2017-11-24T08:01:06.894Z,87.90
2017-11-24T08:03:40.928Z,86.40
2017-11-24T08:06:14.624Z,87.50
2017-11-24T08:08:49.357Z,88.20
2017-11-24T08:11:23.322Z,88.10
2017-11-24T08:13:57.052Z,87.50
2017-11-24T08:16:30.899Z,84.90
2017-11-24T08:19:05.566Z,86.30
2017-11-24T08:21:39.614Z,85.70
2017-11-24T08:24:13.976Z,84.30
2017-11-24T08:26:48.182Z,82.60
2017-11-24T08:29:21.925Z,83.20
2017-11-24T08:31:56.568Z,83.50
2017-11-24T08:34:30.626Z,83.50
2017-11-24T08:37:04.593Z,81.80
2017-11-24T08:39:39.377Z,81.90
2017-11-24T08:42:13.843Z,81.80
2017-11-24T08:44:47.623Z,82.20
2017-11-24T08:47:26.951Z,79.40
2017-11-24T08:50:00.987Z,80.60
2017-11-24T08:52:35.702Z,81.10
2017-11-24T08:55:10.947Z,78.90
2017-11-24T08:57:45.260Z,77.90
2017-11-24T09:00:19.392Z,78.50
2017-11-24T09:02:53.025Z,79.30
2017-11-24T09:05:26.741Z,79.10
2017-11-24T09:08:00.706Z,78.70
2017-11-24T09:10:34.387Z,79.00
2017-11-24T09:13:08.210Z,78.20
2017-11-24T09:15:42.068Z,78.10
2017-11-24T09:18:15.818Z,78.20
2017-11-24T09:20:49.547Z,79.20
2017-11-24T09:23:23.310Z,79.10
2017-11-24T09:25:57.024Z,79.70
2017-11-24T09:28:30.789Z,78.90
2017-11-24T09:31:04.742Z,79.30
2017-11-24T09:33:38.556Z,79.30
2017-11-24T09:36:13.111Z,80.40
2017-11-24T09:38:46.966Z,79.50
2017-11-24T09:41:20.585Z,79.70
2017-11-24T09:43:54.278Z,79.60
2017-11-24T09:46:27.948Z,79.30
2017-11-24T09:49:03.201Z,78.90
2017-11-24T09:51:37.237Z,78.20
2017-11-24T09:54:11.813Z,78.00
2017-11-24T09:56:45.459Z,77.70
2017-11-24T09:59:20.604Z,77.60
2017-11-24T10:01:54.201Z,77.20
2017-11-24T10:04:28.427Z,77.40
2017-11-24T10:07:02.978Z,77.20
2017-11-24T10:09:36.880Z,77.50
2017-11-24T10:12:10.943Z,75.40
2017-11-24T10:14:44.743Z,76.80
2017-11-24T10:17:18.604Z,77.90
2017-11-24T10:19:52.382Z,76.70
2017-11-24T10:22:42.854Z,76.70
2017-11-24T10:25:18.414Z,75.70
2017-11-24T10:27:52.347Z,76.10
2017-11-24T10:30:26.205Z,75.60
2017-11-24T10:33:01.662Z,76.00
2017-11-24T10:35:36.279Z,74.50
2017-11-24T10:38:10.414Z,74.50
2017-11-24T10:40:44.187Z,73.90
2017-11-24T10:43:18.056Z,74.30
2017-11-24T10:45:51.901Z,74.60
2017-11-24T10:48:25.547Z,73.00
2017-11-24T10:50:59.303Z,72.70
2017-11-24T10:53:32.946Z,73.10
2017-11-24T10:56:06.611Z,71.90
2017-11-24T10:58:40.344Z,70.40
2017-11-24T11:01:13.931Z,69.10
2017-11-24T11:03:47.648Z,69.70
2017-11-24T11:06:22.171Z,69.90
2017-11-24T11:08:56.780Z,70.00
2017-11-24T11:11:31.526Z,68.90
2017-11-24T11:14:05.515Z,68.90
2017-11-24T11:16:39.441Z,68.40
2017-11-24T11:19:14.192Z,69.40
2017-11-24T11:21:48.180Z,69.30
2017-11-24T11:24:21.968Z,69.30
2017-11-24T11:26:55.905Z,69.70
2017-11-24T11:29:29.487Z,69.90
2017-11-24T11:32:03.501Z,70.30
2017-11-24T11:34:37.336Z,69.50
2017-11-24T11:37:11.297Z,69.30
2017-11-24T11:39:45.172Z,68.90
2017-11-24T11:42:19.247Z,70.00
2017-11-24T11:44:54.447Z,70.20
2017-11-24T11:47:29.209Z,69.50
2017-11-24T11:50:03.844Z,70.30
2017-11-24T11:52:38.621Z,69.80
2017-11-24T11:55:12.672Z,69.70
2017-11-24T11:57:46.526Z,68.50
2017-11-24T12:00:21.078Z,69.50
2017-11-24T12:02:54.690Z,70.10
2017-11-24T12:05:28.595Z,70.00
2017-11-24T12:08:02.127Z,69.50
2017-11-24T12:10:36.014Z,69.50
2017-11-24T12:13:10.407Z,69.70
2017-11-24T12:15:44.463Z,69.30
2017-11-24T12:18:18.220Z,69.50
2017-11-24T12:20:52.816Z,69.90
2017-11-24T12:23:26.759Z,70.10
2017-11-24T12:26:01.609Z,69.30
2017-11-24T12:28:35.335Z,69.80
2017-11-24T12:31:09.564Z,70.40
2017-11-24T12:33:44.110Z,69.80
2017-11-24T12:36:18.264Z,68.60
2017-11-24T12:38:51.966Z,68.80
2017-11-24T12:41:25.775Z,68.80
2017-11-24T12:44:00.282Z,68.30
2017-11-24T12:46:34.448Z,68.30
2017-11-24T12:49:08.147Z,66.90
2017-11-24T12:51:42.025Z,68.50
2017-11-24T12:54:15.855Z,68.90
2017-11-24T12:56:50.344Z,68.90
2017-11-24T12:59:24.192Z,68.70
2017-11-24T13:01:58.019Z,68.30
2017-11-24T13:04:32.606Z,69.10
2017-11-24T13:07:06.503Z,68.70
2017-11-24T13:09:40.304Z,69.40
2017-11-24T13:12:13.909Z,69.50
2017-11-24T13:14:47.729Z,70.40
2017-11-24T13:17:21.625Z,69.40
2017-11-24T13:19:55.282Z,69.80
2017-11-24T13:22:28.941Z,70.70
2017-11-24T13:25:02.842Z,70.20
2017-11-24T13:27:36.611Z,70.40
2017-11-24T13:30:10.456Z,70.60
2017-11-24T13:32:44.159Z,70.60
2017-11-24T13:35:18.268Z,70.60
2017-11-24T13:37:51.933Z,71.60
2017-11-24T13:40:26.554Z,72.30
2017-11-24T13:43:01.491Z,73.30
2017-11-24T13:45:35.679Z,72.40
2017-11-24T13:48:09.633Z,72.30
2017-11-24T13:50:43.654Z,73.00
2017-11-24T13:53:17.468Z,73.00
2017-11-24T13:55:51.460Z,73.30
2017-11-24T13:58:26.058Z,73.80
2017-11-24T14:00:59.866Z,73.20
2017-11-24T14:03:33.735Z,73.60
2017-11-24T14:06:07.455Z,72.70
2017-11-24T14:08:41.239Z,72.70
2017-11-24T14:11:14.902Z,73.40
2017-11-24T14:13:48.635Z,73.00
2017-11-24T14:16:22.440Z,73.60
2017-11-24T14:18:57.075Z,73.50
2017-11-24T14:21:30.791Z,74.40
2017-11-24T14:24:04.470Z,74.50
2017-11-24T14:26:38.310Z,74.30
2017-11-24T14:29:12.164Z,74.30
2017-11-24T14:31:45.927Z,75.10
2017-11-24T14:34:20.539Z,74.80
2017-11-24T14:36:54.603Z,74.80
2017-11-24T14:39:28.279Z,74.40
2017-11-24T14:42:02.160Z,75.00
2017-11-24T14:44:35.796Z,75.50
2017-11-24T14:47:09.457Z,75.30
2017-11-24T14:49:43.258Z,75.30
2017-11-24T14:52:17.093Z,75.20
2017-11-24T14:54:51.132Z,75.90
2017-11-24T14:57:25.222Z,75.90
2017-11-24T14:59:59.000Z,76.60
2017-11-24T15:02:33.046Z,77.50
2017-11-24T15:05:06.867Z,78.00
2017-11-24T15:07:40.751Z,77.60
2017-11-24T15:10:14.694Z,77.80
2017-11-24T15:12:49.319Z,78.70
2017-11-24T15:15:23.338Z,78.10
2017-11-24T15:17:57.208Z,78.40
2017-11-24T15:20:31.132Z,78.80
2017-11-24T15:23:06.374Z,79.30
2017-11-24T15:25:40.181Z,79.30
2017-11-24T15:28:14.848Z,78.80
2017-11-24T15:30:48.759Z,78.80
2017-11-24T15:33:22.547Z,79.20
2017-11-24T15:35:56.195Z,79.10
2017-11-24T15:38:29.967Z,78.90
2017-11-24T15:41:04.509Z,79.70
2017-11-24T15:43:39.378Z,79.20
2017-11-24T15:46:13.140Z,78.80
2017-11-24T15:48:46.808Z,78.70
2017-11-24T15:51:21.259Z,79.70
2017-11-24T15:53:55.345Z,79.60
2017-11-24T15:56:29.792Z,79.40
2017-11-24T15:59:03.896Z,79.30
2017-11-24T16:01:38.674Z,80.70
2017-11-24T16:04:13.033Z,80.70
2017-11-24T16:06:47.823Z,81.40
2017-11-24T16:09:22.778Z,82.20
2017-11-24T16:11:56.794Z,81.10
2017-11-24T16:14:30.510Z,80.80
2017-11-24T16:17:04.114Z,80.90
2017-11-24T16:19:38.699Z,81.10
2017-11-24T16:22:12.849Z,80.50
2017-11-24T16:24:46.521Z,80.30
2017-11-24T16:27:21.335Z,80.80
2017-11-24T16:29:55.960Z,80.90
2017-11-24T16:32:30.692Z,80.40
2017-11-24T16:35:04.900Z,80.80
2017-11-24T16:37:38.495Z,81.10
2017-11-24T16:40:12.211Z,81.10
2017-11-24T16:42:45.986Z,81.60
2017-11-24T16:45:19.755Z,81.60
2017-11-24T16:47:53.452Z,81.60
2017-11-24T16:50:27.432Z,81.80
2017-11-24T16:53:01.934Z,82.60
2017-11-24T16:55:36.042Z,82.20
2017-11-24T16:58:10.317Z,82.10
2017-11-24T17:00:44.123Z,82.20
2017-11-24T17:03:17.886Z,82.40
2017-11-24T17:05:51.502Z,82.30
2017-11-24T17:08:25.231Z,82.20
2017-11-24T17:10:59.043Z,82.30
2017-11-24T17:13:33.964Z,80.80
2017-11-24T17:16:08.108Z,82.50
2017-11-24T17:18:41.841Z,82.40
2017-11-24T17:21:15.760Z,82.40
2017-11-24T17:23:50.339Z,82.80
2017-11-24T17:26:24.609Z,82.40
2017-11-24T17:28:58.571Z,82.20
2017-11-24T17:31:33.166Z,82.30
2017-11-24T17:34:07.833Z,82.90
2017-11-24T17:36:42.178Z,82.50
2017-11-24T17:39:16.796Z,82.30
2017-11-24T17:41:51.390Z,82.30
2017-11-24T17:44:26.347Z,82.10
2017-11-24T17:47:00.576Z,81.90
2017-11-24T17:49:34.907Z,81.90
2017-11-24T17:52:08.627Z,81.90
2017-11-24T17:54:43.838Z,82.90
2017-11-24T17:57:18.666Z,83.10
2017-11-24T17:59:53.597Z,82.80
2017-11-24T18:02:28.297Z,83.50
2017-11-24T18:05:02.401Z,81.50
2017-11-24T18:07:36.779Z,83.30
2017-11-24T18:10:11.197Z,83.70
2017-11-24T18:12:45.686Z,84.00
2017-11-24T18:15:20.060Z,83.40
2017-11-24T18:17:53.770Z,83.60
2017-11-24T18:20:28.344Z,84.40
2017-11-24T18:23:02.932Z,84.50
2017-11-24T18:25:37.096Z,84.20
2017-11-24T18:28:10.956Z,84.40
2017-11-24T18:30:44.733Z,84.90
2017-11-24T18:33:18.614Z,84.40
2017-11-24T18:35:52.986Z,84.80
2017-11-24T18:38:27.121Z,84.80
2017-11-24T18:41:01.001Z,85.40
2017-11-24T18:43:35.636Z,85.40
2017-11-24T18:46:09.779Z,85.30
2017-11-24T18:48:43.423Z,85.40
2017-11-24T18:51:17.345Z,85.00
2017-11-24T18:53:51.228Z,85.20
2017-11-24T18:56:25.306Z,85.30
2017-11-24T18:58:58.996Z,85.70
2017-11-24T19:01:32.845Z,85.20
2017-11-24T19:04:07.450Z,85.70
2017-11-24T19:06:41.451Z,85.10
2017-11-24T19:09:15.465Z,85.70
2017-11-24T19:11:49.856Z,85.70
2017-11-24T19:14:24.390Z,85.20
2017-11-24T19:16:58.073Z,85.00
2017-11-24T19:19:32.688Z,85.70
2017-11-24T19:22:07.480Z,85.60
2017-11-24T19:24:42.235Z,85.60
2017-11-24T19:27:16.132Z,85.10
2017-11-24T19:29:50.136Z,85.50
2017-11-24T19:32:23.811Z,85.60
2017-11-24T19:34:57.746Z,85.10
2017-11-24T19:37:31.592Z,85.10
2017-11-24T19:40:05.738Z,85.00
2017-11-24T19:42:40.235Z,85.70
2017-11-24T19:45:14.414Z,85.30
2017-11-24T19:47:49.250Z,85.90
2017-11-24T19:50:23.457Z,85.40
2017-11-24T19:52:57.433Z,85.40
2017-11-24T19:55:32.395Z,85.30
2017-11-24T19:58:06.059Z,85.30
2017-11-24T20:00:39.942Z,85.40
2017-11-24T20:03:13.646Z,85.30
2017-11-24T20:05:47.478Z,85.30
2017-11-24T20:08:21.394Z,84.80
2017-11-24T20:10:55.218Z,84.50
2017-11-24T20:13:29.908Z,84.30
2017-11-24T20:16:04.826Z,83.80
2017-11-24T20:18:38.795Z,83.80
2017-11-24T20:21:12.674Z,83.80
2017-11-24T20:23:46.431Z,85.10
2017-11-24T20:26:20.377Z,84.00
2017-11-24T20:28:53.985Z,84.00
2017-11-24T20:31:27.868Z,84.00
2017-11-24T20:34:01.614Z,84.00
2017-11-24T20:36:35.568Z,84.00
2017-11-24T20:39:09.334Z,83.90
2017-11-24T20:41:44.348Z,84.30
2017-11-24T20:44:19.124Z,84.20
2017-11-24T20:46:53.277Z,83.40
2017-11-24T20:49:27.093Z,83.30
2017-11-24T20:52:01.701Z,83.80
2017-11-24T20:54:36.152Z,83.30
2017-11-24T20:57:10.772Z,84.10
2017-11-24T20:59:44.829Z,83.70
2017-11-24T21:02:18.650Z,83.90
2017-11-24T21:04:52.304Z,83.80
2017-11-24T21:07:26.067Z,83.90
2017-11-24T21:09:59.879Z,83.90
2017-11-24T21:12:33.772Z,83.20
2017-11-24T21:15:08.597Z,83.80
2017-11-24T21:17:42.734Z,83.30
2017-11-24T21:20:17.207Z,84.10
2017-11-24T21:22:51.392Z,83.40
2017-11-24T21:25:25.582Z,83.50
2017-11-24T21:28:00.826Z,83.20
2017-11-24T21:30:35.719Z,83.70
2017-11-24T21:33:09.979Z,83.20
2017-11-24T21:35:44.476Z,83.60
2017-11-24T21:38:18.555Z,83.20
2017-11-24T21:40:52.195Z,83.00
2017-11-24T21:43:25.999Z,82.90
2017-11-24T21:45:59.900Z,83.40
2017-11-24T21:48:33.800Z,83.60
2017-11-24T21:51:07.697Z,83.40
2017-11-24T21:53:42.117Z,84.00
2017-11-24T21:56:16.974Z,84.10
2017-11-24T21:58:51.765Z,84.00
2017-11-24T22:01:25.980Z,83.40
2017-11-24T22:03:59.848Z,83.30
2017-11-24T22:06:33.618Z,83.30
2017-11-24T22:09:07.463Z,83.30
2017-11-24T22:11:41.445Z,83.80
2017-11-24T22:14:15.366Z,83.70
2017-11-24T22:16:50.083Z,83.70
2017-11-24T22:19:24.103Z,83.20
2017-11-24T22:21:58.272Z,83.10
2017-11-24T22:24:32.732Z,83.40
2017-11-24T22:27:06.901Z,83.40
2017-11-24T22:29:41.457Z,83.70
2017-11-24T22:32:15.629Z,83.20
2017-11-24T22:34:49.405Z,83.50
2017-11-24T22:37:23.973Z,83.30
2017-11-24T22:39:58.144Z,82.70
2017-11-24T22:42:32.239Z,82.60
2017-11-24T22:45:06.856Z,81.90
2017-11-24T22:47:40.875Z,81.40
2017-11-24T22:50:14.724Z,80.90
2017-11-24T22:52:48.595Z,81.90
2017-11-24T22:55:22.206Z,80.90
2017-11-24T22:57:56.798Z,81.20
2017-11-24T23:00:30.834Z,80.50
2017-11-24T23:03:04.847Z,81.00
2017-11-24T23:05:38.617Z,80.50
2017-11-24T23:08:13.372Z,81.00
2017-11-24T23:10:47.310Z,80.50
2017-11-24T23:13:21.155Z,80.90
2017-11-24T23:15:55.993Z,81.40
2017-11-24T23:18:30.115Z,82.00
2017-11-24T23:21:04.659Z,81.70
2017-11-24T23:23:38.709Z,81.20
2017-11-24T23:26:12.534Z,81.30
2017-11-24T23:28:46.392Z,81.40
2017-11-24T23:31:20.210Z,81.60
2017-11-24T23:33:54.804Z,82.20
2017-11-24T23:36:28.839Z,82.30
2017-11-24T23:39:02.738Z,82.20
2017-11-24T23:41:37.430Z,82.50
2017-11-24T23:44:11.217Z,82.00
2017-11-24T23:46:45.153Z,82.50
2017-11-24T23:49:19.069Z,82.30
2017-11-24T23:51:54.502Z,82.20
2017-11-24T23:54:28.460Z,81.70
2017-11-24T23:57:03.161Z,81.70
2017-11-24T23:59:38.075Z,82.20
